Time;durP1;ratioP1;P1;durP2;ratioP2;P2;SDS_P1;SDS_P2;PMS_P1;PMS_P2;Temp;Humidity;BMP_temperature;BMP_pressure;BME280_temperature;BME280_humidity;BME280_pressure;Samples;Min_cycle;Max_cycle;Signal;HPM_P1;HPM_P2
2021/12/13 00:02:29;;;;;;;7.33;4.57;;;8.00;87.40;;;;;;5126782;27;20269;-76
2021/12/13 00:05:04;;;;;;;9.27;4.83;;;7.90;87.40;;;;;;5114939;27;20201;-77
2021/12/13 00:07:36;;;;;;;6.53;4.53;;;7.90;87.70;;;;;;5111442;27;20194;-76
2021/12/13 00:10:11;;;;;;;7.20;4.77;;;7.90;87.70;;;;;;5110632;27;20820;-77
2021/12/13 00:12:44;;;;;;;7.83;4.30;;;7.90;87.70;;;;;;5115244;27;20799;-75
2021/12/13 00:15:19;;;;;;;7.53;4.57;;;7.90;88.00;;;;;;5106166;27;20200;-76
2021/12/13 00:17:51;;;;;;;8.80;4.30;;;7.80;87.90;;;;;;5113373;27;20191;-76
2021/12/13 00:20:28;;;;;;;8.47;4.40;;;7.80;88.30;;;;;;5111876;27;20668;-77
2021/12/13 00:23:00;;;;;;;6.93;4.33;;;7.80;88.10;;;;;;5109402;27;20191;-76
2021/12/13 00:25:30;;;;;;;7.37;4.10;;;7.80;88.20;;;;;;5125552;27;20193;-76
2021/12/13 00:28:01;;;;;;;5.87;4.10;;;7.80;88.30;;;;;;5114543;27;20195;-75
2021/12/13 00:30:38;;;;;;;7.77;4.83;;;7.80;88.30;;;;;;5114779;27;20752;-76
2021/12/13 00:33:18;;;;;;;7.10;4.63;;;7.70;88.10;;;;;;5120921;27;20529;-76
2021/12/13 00:35:51;;;;;;;7.23;4.47;;;7.80;88.30;;;;;;5115068;27;20227;-76
2021/12/13 00:38:23;;;;;;;7.83;4.23;;;7.70;88.30;;;;;;5115465;27;20214;-77
2021/12/13 00:40:57;;;;;;;7.30;4.10;;;7.70;88.60;;;;;;5113065;27;20184;-76
2021/12/13 00:43:29;;;;;;;6.73;4.17;;;7.70;88.60;;;;;;5113488;27;20199;-77
2021/12/13 00:46:02;;;;;;;7.63;4.40;;;7.60;88.90;;;;;;5106870;27;20222;-77
2021/12/13 00:48:35;;;;;;;9.30;4.50;;;7.70;89.00;;;;;;5114456;27;20182;-77
2021/12/13 00:51:09;;;;;;;7.87;4.50;;;7.70;89.10;;;;;;5121804;27;20187;-76
2021/12/13 00:53:42;;;;;;;7.37;4.20;;;7.60;89.10;;;;;;5119190;27;20197;-78
2021/12/13 00:56:51;;;;;;;8.23;4.97;;;7.60;89.10;;;;;;5116279;27;20199;-77
2021/12/13 00:59:26;;;;;;;6.87;4.40;;;7.60;89.20;;;;;;5113604;27;20692;-77
2021/12/13 01:02:01;;;;;;;9.10;5.78;;;7.60;89.30;;;;;;5108346;27;20447;-77
2021/12/13 01:05:05;;;;;;;10.13;5.30;;;7.60;89.60;;;;;;5106791;27;20281;-76
2021/12/13 01:08:01;;;;;;;9.83;4.63;;;7.70;89.70;;;;;;5108861;27;20227;-76
2021/12/13 01:11:09;;;;;;;8.00;4.70;;;7.70;89.60;;;;;;5119286;27;20277;-76
2021/12/13 01:14:04;;;;;;;7.33;4.60;;;7.70;89.40;;;;;;5114343;27;20242;-77
2021/12/13 01:16:52;;;;;;;7.83;4.73;;;7.70;89.40;;;;;;5117386;27;20196;-77
2021/12/13 01:19:32;;;;;;;7.10;4.47;;;7.70;89.30;;;;;;5112845;27;20841;-76
2021/12/13 01:22:41;;;;;;;9.30;5.50;;;7.70;89.00;;;;;;5116476;27;20178;-76
2021/12/13 01:25:23;;;;;;;10.63;5.40;;;7.60;88.70;;;;;;5125663;27;20198;-76
2021/12/13 01:27:58;;;;;;;7.93;5.07;;;7.60;88.70;;;;;;5118512;27;20213;-76
2021/12/13 01:30:31;;;;;;;8.57;5.00;;;7.60;88.70;;;;;;5114021;27;20597;-75
2021/12/13 01:33:01;;;;;;;8.83;5.17;;;7.50;88.50;;;;;;5114842;27;20190;-76
2021/12/13 01:35:32;;;;;;;10.53;5.60;;;7.60;88.70;;;;;;5108686;27;20225;-77
2021/12/13 01:38:06;;;;;;;11.00;5.33;;;7.50;88.70;;;;;;5111644;27;20208;-77
2021/12/13 01:40:38;;;;;;;9.98;5.95;;;7.60;88.90;;;;;;5105860;27;21019;-77
2021/12/13 01:43:11;;;;;;;8.30;5.17;;;7.50;88.80;;;;;;5108243;27;20191;-76
2021/12/13 01:45:42;;;;;;;9.47;5.27;;;7.50;88.90;;;;;;5104617;27;20198;-76
2021/12/13 01:48:21;;;;;;;8.80;5.07;;;7.40;88.70;;;;;;5105849;27;20691;-76
2021/12/13 01:50:53;;;;;;;9.30;5.07;;;7.40;88.80;;;;;;5114261;27;20240;-75
2021/12/13 01:53:33;;;;;;;8.80;5.20;;;7.40;88.80;;;;;;5115594;27;20240;-76
2021/12/13 01:56:22;;;;;;;9.90;5.57;;;7.30;89.00;;;;;;5112940;27;20197;-76
2021/12/13 01:58:51;;;;;;;8.53;4.60;;;7.20;89.20;;;;;;5113666;27;20191;-74
2021/12/13 02:01:25;;;;;;;9.40;5.83;;;7.10;89.40;;;;;;5117348;27;20200;-77
2021/12/13 02:03:59;;;;;;;9.57;5.73;;;7.20;89.50;;;;;;5120041;27;20598;-77
2021/12/13 02:06:33;;;;;;;9.20;5.50;;;7.20;89.50;;;;;;5125481;27;20258;-76
2021/12/13 02:09:05;;;;;;;8.30;4.80;;;7.10;89.50;;;;;;5108321;27;20194;-76
2021/12/13 02:11:36;;;;;;;9.83;5.67;;;7.10;89.70;;;;;;5112212;27;20190;-74
2021/12/13 02:14:12;;;;;;;9.50;5.77;;;7.10;89.70;;;;;;5116430;27;20192;-75
2021/12/13 02:16:57;;;;;;;10.57;6.00;;;7.10;89.70;;;;;;5116114;27;20203;-76
2021/12/13 02:19:46;;;;;;;10.43;6.23;;;7.10;89.70;;;;;;5110882;27;20235;-75
2021/12/13 02:22:33;;;;;;;10.13;5.87;;;7.10;89.70;;;;;;5111086;27;20256;-75
2021/12/13 02:25:07;;;;;;;11.40;6.40;;;7.00;89.80;;;;;;5117424;27;20193;-76
2021/12/13 02:27:39;;;;;;;9.30;5.47;;;7.00;89.80;;;;;;5115774;27;20214;-77
2021/12/13 02:30:22;;;;;;;9.90;5.23;;;7.00;89.90;;;;;;5110639;28;20204;-77
2021/12/13 02:32:51;;;;;;;11.17;6.10;;;7.10;90.00;;;;;;5112404;28;20196;-76
2021/12/13 02:35:22;;;;;;;9.37;5.50;;;7.00;90.00;;;;;;5114342;28;20235;-76
2021/12/13 02:37:52;;;;;;;11.10;6.57;;;7.00;90.00;;;;;;5116064;27;20246;-76
2021/12/13 02:40:22;;;;;;;13.63;6.63;;;7.00;90.00;;;;;;5118896;27;20189;-76
2021/12/13 02:42:53;;;;;;;11.87;6.70;;;7.00;90.00;;;;;;5115370;27;20732;-76
2021/12/13 02:45:25;;;;;;;10.37;6.23;;;7.00;90.00;;;;;;5117581;27;20190;-77
2021/12/13 02:48:01;;;;;;;10.73;5.90;;;7.00;90.30;;;;;;5124217;27;20197;-75
2021/12/13 02:50:46;;;;;;;10.60;6.23;;;7.00;89.90;;;;;;5113663;27;20838;-75
2021/12/13 02:53:19;;;;;;;9.43;5.87;;;7.00;90.00;;;;;;5109274;27;20194;-75
2021/12/13 02:55:48;;;;;;;8.77;5.67;;;7.00;90.00;;;;;;5120303;27;20210;-77
2021/12/13 02:58:21;;;;;;;10.60;6.33;;;7.10;90.00;;;;;;5117545;27;20227;-76
2021/12/13 03:00:54;;;;;;;9.97;5.90;;;7.00;89.80;;;;;;5112824;27;20200;-76
2021/12/13 03:03:27;;;;;;;10.93;5.95;;;7.10;89.80;;;;;;5112489;27;20920;-77
2021/12/13 03:05:58;;;;;;;9.73;5.77;;;7.00;89.90;;;;;;5124214;27;20279;-77
2021/12/13 03:08:32;;;;;;;12.17;6.43;;;7.00;89.80;;;;;;5116901;27;20210;-75
2021/12/13 03:11:05;;;;;;;11.37;6.17;;;7.00;89.70;;;;;;5111923;27;20185;-77
2021/12/13 03:13:33;;;;;;;9.90;5.60;;;7.00;89.50;;;;;;5112598;27;20195;-77
2021/12/13 03:16:05;;;;;;;12.47;6.43;;;7.00;89.50;;;;;;5116072;27;20217;-76
2021/12/13 03:18:42;;;;;;;9.90;5.93;;;7.00;89.50;;;;;;5113217;27;20244;-76
2021/12/13 03:21:47;;;;;;;10.13;6.23;;;7.10;89.50;;;;;;5120419;27;20181;-76
2021/12/13 03:24:31;;;;;;;8.33;5.40;;;7.10;89.50;;;;;;5117248;27;20192;-75
2021/12/13 03:27:14;;;;;;;13.73;6.20;;;7.00;89.20;;;;;;5124910;27;20194;-76
2021/12/13 03:29:55;;;;;;;10.67;6.10;;;7.00;89.20;;;;;;5116255;27;20199;-76
2021/12/13 03:32:23;;;;;;;11.43;5.77;;;7.00;89.20;;;;;;5116760;27;20184;-75
2021/12/13 03:35:03;;;;;;;10.87;6.23;;;7.10;89.20;;;;;;5111255;27;20588;-76
2021/12/13 03:37:33;;;;;;;12.80;6.07;;;7.10;89.20;;;;;;5114476;27;20197;-75
2021/12/13 03:40:08;;;;;;;9.60;5.83;;;7.10;89.10;;;;;;5117423;27;20200;-75
2021/12/13 03:42:42;;;;;;;9.93;5.23;;;7.10;89.00;;;;;;5119561;27;20193;-76
2021/12/13 03:45:17;;;;;;;12.27;6.00;;;7.20;88.90;;;;;;5117837;27;20180;-76
2021/12/13 03:47:52;;;;;;;9.33;5.83;;;7.20;88.80;;;;;;5118177;27;20209;-75
2021/12/13 03:50:29;;;;;;;13.20;6.23;;;7.20;88.80;;;;;;5113775;27;20692;-76
2021/12/13 03:53:02;;;;;;;12.53;5.73;;;7.30;88.90;;;;;;5118846;27;20194;-77
2021/12/13 03:55:33;;;;;;;10.33;6.07;;;7.30;88.70;;;;;;5124183;27;20202;-76
2021/12/13 03:58:07;;;;;;;10.33;5.97;;;7.30;88.60;;;;;;5125693;27;20193;-77
2021/12/13 04:00:39;;;;;;;10.83;6.03;;;7.40;88.60;;;;;;5116470;27;20194;-76
2021/12/13 04:03:11;;;;;;;9.30;5.17;;;7.40;88.40;;;;;;5120070;27;20861;-76
2021/12/13 04:05:40;;;;;;;10.07;5.67;;;7.40;88.30;;;;;;5110161;27;20206;-76
2021/12/13 04:08:12;;;;;;;7.63;4.80;;;7.50;88.30;;;;;;5114571;27;20223;-76
2021/12/13 04:10:45;;;;;;;10.27;5.87;;;7.50;88.20;;;;;;5110025;27;20217;-78
2021/12/13 04:13:16;;;;;;;11.07;5.80;;;7.50;88.10;;;;;;5118579;27;20216;-76
2021/12/13 04:16:00;;;;;;;8.83;5.33;;;7.50;88.00;;;;;;5108427;27;20731;-76
2021/12/13 04:19:06;;;;;;;10.00;5.57;;;7.60;88.00;;;;;;5128392;27;20665;-76
2021/12/13 04:21:39;;;;;;;11.23;5.93;;;7.60;88.00;;;;;;5113917;27;20877;-77
2021/12/13 04:24:11;;;;;;;11.20;5.77;;;7.70;87.90;;;;;;5117219;27;20183;-76
2021/12/13 04:26:44;;;;;;;12.13;6.00;;;7.70;87.70;;;;;;5113472;27;20273;-76
2021/12/13 04:29:19;;;;;;;10.13;5.53;;;7.70;87.60;;;;;;5125129;27;20199;-76
2021/12/13 04:31:48;;;;;;;10.57;5.73;;;7.80;87.50;;;;;;5119152;27;20196;-76
2021/12/13 04:34:16;;;;;;;12.00;5.80;;;7.80;87.50;;;;;;5114988;27;20227;-76
2021/12/13 04:36:53;;;;;;;9.60;5.83;;;7.80;87.50;;;;;;5106537;27;20192;-77
2021/12/13 04:39:27;;;;;;;10.13;5.97;;;7.90;87.40;;;;;;5112452;27;20646;-76
2021/12/13 04:42:00;;;;;;;9.63;5.23;;;7.90;87.10;;;;;;5122119;27;20604;-76
2021/12/13 04:44:34;;;;;;;11.37;5.93;;;7.90;86.60;;;;;;5112414;27;20253;-77
2021/12/13 04:47:08;;;;;;;10.77;6.13;;;7.90;86.70;;;;;;5112843;27;20191;-76
2021/12/13 04:49:38;;;;;;;11.53;5.70;;;7.90;86.70;;;;;;5116703;27;20212;-76
2021/12/13 04:52:11;;;;;;;12.07;6.17;;;7.90;86.60;;;;;;5118950;27;20820;-76
2021/12/13 04:54:46;;;;;;;9.97;5.90;;;7.90;86.50;;;;;;5109971;27;20217;-76
2021/12/13 04:57:17;;;;;;;8.80;5.83;;;7.90;86.60;;;;;;5123550;27;20205;-76
2021/12/13 04:59:49;;;;;;;11.83;5.97;;;7.90;86.60;;;;;;5123181;27;20754;-76
2021/12/13 05:02:18;;;;;;;10.03;5.63;;;7.90;86.80;;;;;;5114187;27;20592;-76
2021/12/13 05:04:49;;;;;;;10.57;6.17;;;7.90;86.80;;;;;;5115621;27;20304;-77
2021/12/13 05:07:20;;;;;;;12.87;6.90;;;7.90;86.50;;;;;;5116748;27;20276;-77
2021/12/13 05:09:49;;;;;;;11.43;6.13;;;7.80;86.30;;;;;;5112023;27;20706;-77
2021/12/13 05:12:22;;;;;;;11.23;6.57;;;7.80;86.40;;;;;;5113908;27;20820;-76
2021/12/13 05:14:55;;;;;;;11.10;6.37;;;7.80;86.50;;;;;;5111027;27;20691;-77
2021/12/13 05:17:26;;;;;;;11.80;6.97;;;7.80;86.50;;;;;;5115072;27;20198;-76
2021/12/13 05:20:00;;;;;;;10.57;6.50;;;7.80;86.60;;;;;;5116224;27;20198;-77
2021/12/13 05:22:31;;;;;;;9.57;5.93;;;7.80;86.60;;;;;;5116813;27;20194;-76
2021/12/13 05:25:02;;;;;;;12.33;6.73;;;7.70;86.50;;;;;;5115652;27;20208;-76
2021/12/13 05:27:36;;;;;;;10.70;6.33;;;7.70;86.60;;;;;;5117150;27;20581;-76
2021/12/13 05:30:16;;;;;;;12.23;6.17;;;7.70;86.60;;;;;;5112732;27;20698;-76
2021/12/13 05:32:48;;;;;;;14.40;6.57;;;7.70;86.80;;;;;;5122627;27;20191;-75
2021/12/13 05:35:27;;;;;;;10.43;6.60;;;7.70;86.70;;;;;;5116092;27;20231;-75
2021/12/13 05:37:59;;;;;;;13.10;7.17;;;7.70;86.70;;;;;;5108767;27;20198;-74
2021/12/13 05:40:36;;;;;;;11.00;6.47;;;7.70;86.70;;;;;;5119277;27;20713;-75
2021/12/13 05:43:18;;;;;;;11.87;6.57;;;7.80;86.80;;;;;;5119297;27;20188;-77
2021/12/13 05:45:50;;;;;;;13.77;6.87;;;7.80;86.80;;;;;;5117345;27;20207;-76
2021/12/13 05:48:22;;;;;;;12.30;6.93;;;7.80;86.60;;;;;;5111164;27;20194;-77
2021/12/13 05:50:53;;;;;;;13.50;7.23;;;7.80;86.50;;;;;;5104739;27;20199;-76
2021/12/13 05:53:26;;;;;;;12.00;7.50;;;7.80;87.30;;;;;;5106139;27;20614;-76
2021/12/13 05:56:01;;;;;;;11.57;6.97;;;7.80;86.30;;;;;;5113153;27;20199;-76
2021/12/13 05:58:50;;;;;;;12.80;6.47;;;7.80;86.30;;;;;;5106631;27;20373;-76
2021/12/13 06:01:22;;;;;;;11.77;6.80;;;7.80;86.40;;;;;;5111829;27;20540;-76
2021/12/13 06:03:55;;;;;;;11.43;6.47;;;7.80;86.30;;;;;;5109322;27;20187;-76
2021/12/13 06:06:27;;;;;;;12.23;7.03;;;7.80;86.20;;;;;;5107226;27;20194;-76
2021/12/13 06:08:59;;;;;;;15.87;7.67;;;7.80;86.20;;;;;;5110902;27;20202;-76
2021/12/13 06:11:33;;;;;;;13.23;6.57;;;7.80;86.30;;;;;;5115530;27;20194;-76
2021/12/13 06:14:16;;;;;;;13.27;7.80;;;7.80;86.30;;;;;;5118101;27;20944;-76
2021/12/13 06:17:03;;;;;;;12.67;7.00;;;7.80;86.40;;;;;;5121370;27;20195;-75
2021/12/13 06:19:35;;;;;;;12.13;6.83;;;7.80;86.20;;;;;;5118534;27;20858;-76
2021/12/13 06:22:10;;;;;;;11.50;6.97;;;7.90;86.90;;;;;;5112294;27;20210;-75
2021/12/13 06:24:40;;;;;;;13.97;8.13;;;7.90;86.10;;;;;;5116573;27;20185;-75
2021/12/13 06:27:13;;;;;;;13.70;7.13;;;7.90;86.10;;;;;;5110133;27;20187;-75
2021/12/13 06:30:10;;;;;;;14.20;7.63;;;7.80;85.90;;;;;;5109158;27;20920;-75
2021/12/13 06:32:49;;;;;;;14.00;7.67;;;7.80;85.90;;;;;;5113726;28;20272;-75
2021/12/13 06:35:40;;;;;;;12.07;7.83;;;7.80;86.10;;;;;;5112488;27;20267;-76
2021/12/13 06:38:42;;;;;;;12.17;7.40;;;7.80;86.20;;;;;;5110102;27;20197;-75
2021/12/13 06:41:36;;;;;;;14.17;7.77;;;7.80;86.10;;;;;;5114845;27;20452;-75
2021/12/13 06:44:08;;;;;;;13.27;7.40;;;7.80;86.10;;;;;;5113828;28;20187;-75
2021/12/13 06:46:43;;;;;;;11.77;6.87;;;7.80;86.10;;;;;;5125531;27;20182;-75
2021/12/13 06:49:26;;;;;;;12.33;6.93;;;7.80;86.20;;;;;;5118168;27;20565;-75
2021/12/13 06:51:59;;;;;;;12.43;7.93;;;7.80;86.30;;;;;;5115660;28;20231;-76
2021/12/13 06:54:37;;;;;;;12.47;7.03;;;7.80;86.30;;;;;;5108313;27;20590;-76
2021/12/13 06:57:10;;;;;;;14.00;7.80;;;7.90;86.50;;;;;;5115382;27;20242;-76
2021/12/13 06:59:47;;;;;;;13.67;7.33;;;7.90;87.30;;;;;;5117045;28;20670;-76
2021/12/13 07:02:20;;;;;;;13.90;7.97;;;7.90;86.50;;;;;;5108964;27;20197;-77
2021/12/13 07:05:06;;;;;;;16.60;8.27;;;7.90;86.40;;;;;;5125959;27;20279;-77
2021/12/13 07:07:38;;;;;;;16.17;8.33;;;8.00;86.50;;;;;;5111712;28;20252;-77
2021/12/13 07:10:15;;;;;;;12.43;7.60;;;8.00;86.50;;;;;;5122776;27;20256;-77
2021/12/13 07:12:49;;;;;;;16.40;8.40;;;8.00;86.30;;;;;;5115925;27;20940;-77
2021/12/13 07:15:30;;;;;;;13.30;7.53;;;8.10;86.70;;;;;;5122462;27;20199;-76
2021/12/13 07:18:07;;;;;;;13.40;7.73;;;8.00;86.10;;;;;;5111391;28;20247;-77
2021/12/13 07:20:43;;;;;;;13.47;7.50;;;8.10;86.10;;;;;;5127862;27;20187;-78
2021/12/13 07:23:12;;;;;;;13.77;7.30;;;8.10;85.70;;;;;;5128066;27;20183;-76
2021/12/13 07:25:44;;;;;;;15.03;7.83;;;8.10;85.60;;;;;;5112784;27;20196;-78
2021/12/13 07:28:26;;;;;;;13.03;7.30;;;8.10;85.60;;;;;;5130385;27;20181;-76
2021/12/13 07:30:55;;;;;;;15.07;7.40;;;8.10;85.60;;;;;;5120064;27;20207;-77
2021/12/13 07:33:36;;;;;;;13.97;7.17;;;8.10;85.60;;;;;;5118525;27;20722;-76
2021/12/13 07:36:22;;;;;;;11.50;7.33;;;8.10;85.50;;;;;;5112812;27;20275;-77
2021/12/13 07:38:56;;;;;;;14.82;8.43;;;8.10;85.30;;;;;;5119432;27;20826;-77
2021/12/13 07:41:27;;;;;;;15.87;8.30;;;8.00;85.40;;;;;;5125022;27;20818;-76
2021/12/13 07:43:55;;;;;;;13.93;8.10;;;8.10;85.50;;;;;;5122147;27;20790;-77
2021/12/13 07:46:28;;;;;;;14.90;7.40;;;8.10;85.60;;;;;;5121893;27;20191;-77
2021/12/13 07:49:00;;;;;;;13.90;6.50;;;8.10;85.50;;;;;;5116769;27;20196;-77
2021/12/13 07:51:31;;;;;;;13.70;6.93;;;8.00;85.40;;;;;;5116521;27;20585;-76
2021/12/13 07:54:05;;;;;;;15.20;7.73;;;8.00;85.50;;;;;;5122577;27;20195;-76
2021/12/13 07:56:44;;;;;;;12.93;7.73;;;8.00;85.40;;;;;;5117153;27;20179;-77
2021/12/13 07:59:16;;;;;;;16.40;7.83;;;8.00;85.30;;;;;;5114159;27;20183;-76
2021/12/13 08:01:48;;;;;;;13.67;7.27;;;8.00;85.20;;;;;;5114630;27;20180;-76
2021/12/13 08:04:22;;;;;;;13.83;7.20;;;8.00;85.30;;;;;;5110736;27;20194;-76
2021/12/13 08:06:54;;;;;;;15.93;8.83;;;8.00;85.60;;;;;;5115904;27;20824;-76
2021/12/13 08:09:25;;;;;;;13.60;8.03;;;8.00;85.60;;;;;;5113662;27;20188;-77
2021/12/13 08:11:57;;;;;;;14.90;7.07;;;8.00;85.60;;;;;;5131024;27;20205;-76
2021/12/13 08:14:28;;;;;;;13.23;7.33;;;8.00;85.60;;;;;;5123022;27;20715;-77
2021/12/13 08:16:57;;;;;;;14.33;7.93;;;8.00;85.60;;;;;;5121973;27;20191;-77
2021/12/13 08:19:32;;;;;;;13.17;7.23;;;8.00;85.60;;;;;;5114168;27;20620;-76
2021/12/13 08:22:02;;;;;;;14.13;8.07;;;8.00;85.90;;;;;;5116112;27;20661;-77
2021/12/13 08:24:34;;;;;;;14.30;7.63;;;8.10;85.90;;;;;;5123891;27;20192;-76
2021/12/13 08:27:08;;;;;;;13.87;7.87;;;8.00;85.70;;;;;;5119580;27;20768;-76
2021/12/13 08:29:39;;;;;;;15.27;7.57;;;8.00;86.10;;;;;;5114093;27;20562;-76
2021/12/13 08:32:13;;;;;;;15.53;8.40;;;8.00;86.30;;;;;;5124190;27;20197;-76
2021/12/13 08:34:47;;;;;;;12.23;7.10;;;8.10;86.50;;;;;;5113530;27;20219;-76
2021/12/13 08:37:21;;;;;;;14.40;7.60;;;8.10;86.60;;;;;;5117940;27;20187;-76
2021/12/13 08:39:54;;;;;;;13.20;7.10;;;8.20;86.70;;;;;;5123658;27;20175;-76
2021/12/13 08:42:25;;;;;;;16.40;8.70;;;8.20;86.70;;;;;;5124927;27;20404;-77
2021/12/13 08:44:58;;;;;;;15.43;7.70;;;8.10;86.90;;;;;;5113233;27;20187;-77
2021/12/13 08:47:38;;;;;;;17.83;8.67;;;8.20;87.10;;;;;;5106153;28;20185;-76
2021/12/13 08:50:12;;;;;;;14.63;8.17;;;8.20;87.30;;;;;;5113982;27;20204;-77
2021/12/13 08:52:43;;;;;;;15.07;8.77;;;8.10;87.40;;;;;;5123551;27;20211;-75
2021/12/13 08:55:23;;;;;;;17.60;8.33;;;8.20;87.60;;;;;;5109893;27;20198;-76
2021/12/13 08:57:56;;;;;;;16.80;8.97;;;8.20;87.90;;;;;;5122720;27;20191;-77
2021/12/13 09:00:35;;;;;;;14.20;7.53;;;8.20;88.20;;;;;;5108642;27;20176;-77
2021/12/13 09:03:24;;;;;;;15.53;8.70;;;8.10;88.00;;;;;;5114515;27;20244;-77
2021/12/13 09:05:59;;;;;;;15.83;8.73;;;8.20;88.00;;;;;;5126676;27;20177;-76
2021/12/13 09:08:32;;;;;;;15.40;9.30;;;8.20;88.20;;;;;;5114516;27;20590;-77
2021/12/13 09:11:05;;;;;;;18.40;8.73;;;8.20;88.40;;;;;;5131160;27;20204;-76
2021/12/13 09:13:40;;;;;;;15.87;9.57;;;8.20;88.30;;;;;;5114717;27;20183;-76
2021/12/13 09:16:10;;;;;;;15.10;8.50;;;8.30;88.70;;;;;;5119244;27;20184;-76
2021/12/13 09:18:39;;;;;;;17.33;11.02;;;8.30;88.70;;;;;;5110212;27;20419;-77
2021/12/13 09:21:09;;;;;;;16.50;9.60;;;8.40;89.00;;;;;;5126160;27;20184;-76
2021/12/13 09:23:44;;;;;;;14.03;8.67;;;8.40;88.40;;;;;;5119257;27;20765;-76
2021/12/13 09:26:15;;;;;;;17.37;9.40;;;8.40;87.80;;;;;;5120261;27;20180;-76
2021/12/13 09:28:49;;;;;;;17.33;9.10;;;8.40;87.60;;;;;;5111593;27;20197;-76
2021/12/13 09:31:19;;;;;;;12.93;7.60;;;8.40;87.50;;;;;;5124791;27;20227;-77
2021/12/13 09:33:52;;;;;;;13.20;7.70;;;8.40;87.50;;;;;;5127684;27;20192;-76
2021/12/13 09:36:24;;;;;;;17.03;9.00;;;8.40;87.60;;;;;;5120174;27;20212;-77
2021/12/13 09:38:56;;;;;;;15.90;8.87;;;8.50;87.50;;;;;;5118593;27;20527;-76
2021/12/13 09:41:31;;;;;;;17.50;9.10;;;8.50;88.20;;;;;;5124016;27;20187;-76
2021/12/13 09:44:05;;;;;;;16.00;8.97;;;8.50;87.70;;;;;;5106471;27;20188;-76
2021/12/13 09:46:39;;;;;;;19.37;8.13;;;8.60;87.20;;;;;;5115488;27;20693;-76
2021/12/13 09:49:11;;;;;;;17.03;9.20;;;8.60;87.20;;;;;;5124219;27;20192;-76
2021/12/13 09:51:45;;;;;;;15.80;7.97;;;8.70;87.00;;;;;;5114154;27;20204;-76
2021/12/13 09:54:16;;;;;;;16.00;8.33;;;8.70;87.00;;;;;;5116967;27;20237;-76
2021/12/13 09:56:49;;;;;;;16.77;8.47;;;8.70;86.70;;;;;;5113895;27;20197;-77
2021/12/13 09:59:24;;;;;;;17.93;8.90;;;8.80;86.60;;;;;;5120491;27;20217;-76
2021/12/13 10:01:54;;;;;;;16.50;8.87;;;8.80;86.60;;;;;;5121438;27;20583;-76
2021/12/13 10:04:30;;;;;;;16.03;9.20;;;8.80;86.60;;;;;;5114324;27;20238;-76
2021/12/13 10:07:04;;;;;;;18.47;9.33;;;8.90;86.70;;;;;;5108622;27;20188;-76
2021/12/13 10:09:35;;;;;;;19.10;10.40;;;8.90;86.80;;;;;;5125200;27;20210;-76
2021/12/13 10:12:10;;;;;;;15.43;8.77;;;8.90;86.90;;;;;;5127227;27;20261;-77
2021/12/13 10:14:44;;;;;;;16.13;9.40;;;8.90;86.90;;;;;;5117954;27;20195;-76
2021/12/13 10:17:17;;;;;;;16.37;9.20;;;9.00;86.90;;;;;;5110331;27;20184;-76
2021/12/13 10:19:49;;;;;;;15.97;8.67;;;9.00;86.60;;;;;;5116827;27;20203;-77
2021/12/13 10:22:22;;;;;;;18.20;8.80;;;9.00;86.20;;;;;;5113358;27;20199;-77
2021/12/13 10:24:53;;;;;;;15.93;8.90;;;9.00;86.30;;;;;;5125236;27;20710;-77
2021/12/13 10:27:22;;;;;;;14.03;8.23;;;9.10;86.20;;;;;;5119524;28;20636;-75
2021/12/13 10:29:56;;;;;;;14.10;8.20;;;9.10;86.10;;;;;;5109323;27;20204;-76
2021/12/13 10:32:27;;;;;;;13.93;7.80;;;9.10;86.10;;;;;;5111492;28;20201;-76
2021/12/13 10:35:00;;;;;;;13.20;7.97;;;9.10;86.10;;;;;;5118853;27;20233;-76
2021/12/13 10:37:33;;;;;;;14.67;8.40;;;9.10;86.10;;;;;;5122403;27;20563;-76
2021/12/13 10:40:07;;;;;;;14.53;8.77;;;9.10;86.00;;;;;;5116359;28;20177;-76
2021/12/13 10:42:38;;;;;;;16.17;9.27;;;9.20;86.10;;;;;;5112392;28;20185;-77
2021/12/13 10:45:13;;;;;;;14.70;9.27;;;9.20;85.80;;;;;;5112024;28;20192;-76
2021/12/13 10:47:47;;;;;;;20.47;9.50;;;9.20;85.80;;;;;;5112531;27;20211;-78
2021/12/13 10:50:19;;;;;;;16.40;8.23;;;9.20;85.70;;;;;;5115852;27;20196;-78
2021/12/13 10:52:53;;;;;;;18.47;10.17;;;9.20;85.50;;;;;;5116707;27;20210;-77
2021/12/13 10:55:25;;;;;;;18.13;9.20;;;9.30;85.30;;;;;;5129458;27;20188;-77
2021/12/13 10:57:54;;;;;;;15.83;9.17;;;9.30;85.00;;;;;;5127588;27;20638;-76
2021/12/13 11:00:26;;;;;;;14.93;8.70;;;9.30;85.00;;;;;;5124446;27;20188;-77
2021/12/13 11:03:00;;;;;;;16.73;9.40;;;9.30;85.00;;;;;;5121180;27;20182;-78
2021/12/13 11:05:29;;;;;;;14.17;9.37;;;9.30;84.80;;;;;;5118694;27;20723;-76
2021/12/13 11:08:01;;;;;;;17.27;9.27;;;9.30;84.70;;;;;;5113162;27;20645;-79
2021/12/13 11:10:34;;;;;;;16.13;8.87;;;9.30;84.80;;;;;;5124673;27;20184;-77
2021/12/13 11:13:25;;;;;;;16.77;8.87;;;9.30;84.90;;;;;;5118850;27;20699;-77
2021/12/13 11:15:57;;;;;;;17.30;9.67;;;9.20;84.60;;;;;;5117810;27;20188;-77
2021/12/13 11:18:31;;;;;;;20.90;10.03;;;9.20;84.70;;;;;;5119865;27;20191;-76
2021/12/13 11:21:04;;;;;;;18.27;10.27;;;9.20;84.90;;;;;;5117855;27;20199;-77
2021/12/13 11:23:34;;;;;;;16.38;10.27;;;9.20;85.20;;;;;;5114095;27;20424;-76
2021/12/13 11:26:06;;;;;;;16.30;9.40;;;9.20;85.50;;;;;;5120840;27;20639;-78
2021/12/13 11:28:35;;;;;;;16.63;9.27;;;9.20;86.30;;;;;;5118599;27;20738;-77
2021/12/13 11:31:11;;;;;;;17.23;9.17;;;9.30;85.50;;;;;;5117284;27;20194;-77
2021/12/13 11:34:18;;;;;;;17.80;9.80;;;9.20;85.50;;;;;;5117916;27;20245;-77
2021/12/13 11:37:06;;;;;;;15.27;8.83;;;9.30;85.50;;;;;;5125506;27;20214;-78
2021/12/13 11:40:01;;;;;;;18.33;9.87;;;9.30;85.60;;;;;;5115277;27;20189;-76
2021/12/13 11:43:03;;;;;;;16.50;10.03;;;9.30;85.70;;;;;;5119458;27;20631;-77
2021/12/13 11:46:10;;;;;;;19.13;9.10;;;9.40;85.80;;;;;;5108046;27;20181;-76
2021/12/13 11:49:00;;;;;;;16.47;9.50;;;9.40;85.90;;;;;;5114814;27;20180;-77
2021/12/13 11:52:07;;;;;;;19.67;10.10;;;9.40;85.90;;;;;;5124925;27;20205;-77
2021/12/13 11:54:55;;;;;;;17.03;9.73;;;9.40;85.90;;;;;;5111363;27;20231;-78
2021/12/13 11:58:03;;;;;;;16.27;10.20;;;9.40;86.10;;;;;;5109598;27;20220;-78
2021/12/13 12:01:09;;;;;;;18.83;10.27;;;9.40;86.30;;;;;;5114621;27;20184;-79
2021/12/13 12:04:39;;;;;;;18.73;9.70;;;9.40;86.40;;;;;;5065749;27;20196;-77
2021/12/13 12:07:27;;;;;;;22.40;10.77;;;9.40;86.80;;;;;;5116233;27;20852;-78
2021/12/13 12:10:13;;;;;;;22.83;11.30;;;9.40;86.80;;;;;;5116671;27;20434;-77
2021/12/13 12:12:56;;;;;;;20.97;10.40;;;9.30;86.90;;;;;;5121129;27;20200;-78
2021/12/13 12:15:26;;;;;;;21.23;10.43;;;9.30;87.00;;;;;;5118460;27;20683;-77
2021/12/13 12:17:56;;;;;;;22.10;10.83;;;9.30;88.00;;;;;;5113756;27;20197;-77
2021/12/13 12:20:28;;;;;;;17.77;10.27;;;9.20;87.30;;;;;;5123505;27;20193;-77
2021/12/13 12:23:00;;;;;;;22.10;11.10;;;9.20;87.40;;;;;;5116495;27;20185;-77
2021/12/13 12:25:31;;;;;;;21.17;12.00;;;9.20;87.40;;;;;;5116450;27;21237;-77
2021/12/13 12:28:06;;;;;;;18.87;11.27;;;9.20;87.70;;;;;;5112909;27;20858;-76
2021/12/13 12:30:39;;;;;;;22.10;11.60;;;9.10;87.80;;;;;;5117349;27;20181;-76
2021/12/13 12:33:10;;;;;;;21.90;12.00;;;9.10;88.10;;;;;;5118737;27;20904;-76
2021/12/13 12:35:42;;;;;;;21.70;11.27;;;9.10;88.20;;;;;;5111776;27;20928;-77
2021/12/13 12:38:34;;;;;;;21.60;11.47;;;9.10;88.10;;;;;;5106382;27;20630;-75
2021/12/13 12:41:31;;;;;;;24.00;11.57;;;9.10;88.10;;;;;;5115084;27;20180;-75
2021/12/13 12:44:01;;;;;;;20.60;10.67;;;9.10;88.30;;;;;;5100691;27;20196;-75
2021/12/13 12:46:31;;;;;;;18.40;10.80;;;9.10;88.40;;;;;;5106416;28;20212;-76
2021/12/13 12:49:01;;;;;;;22.27;11.17;;;9.10;88.50;;;;;;5114677;27;20264;-77
2021/12/13 12:51:32;;;;;;;20.63;11.53;;;9.10;88.40;;;;;;5105893;27;20234;-76
2021/12/13 12:54:04;;;;;;;20.83;10.97;;;9.10;88.10;;;;;;5108739;27;20204;-76
2021/12/13 12:56:41;;;;;;;21.47;11.33;;;9.10;88.10;;;;;;5108450;27;20186;-77
2021/12/13 12:59:16;;;;;;;18.60;10.70;;;9.10;88.30;;;;;;5119132;27;20181;-76
2021/12/13 13:01:53;;;;;;;24.97;11.10;;;9.00;88.10;;;;;;5109469;27;20696;-76
2021/12/13 13:04:25;;;;;;;22.33;11.93;;;9.00;88.10;;;;;;5120181;27;20184;-78
2021/12/13 13:07:02;;;;;;;20.53;11.37;;;9.00;88.20;;;;;;5109680;27;20630;-77
2021/12/13 13:09:44;;;;;;;18.47;10.90;;;9.00;88.30;;;;;;5116103;27;20179;-76
2021/12/13 13:12:16;;;;;;;24.13;12.43;;;9.00;88.30;;;;;;5124764;27;20254;-77
2021/12/13 13:14:49;;;;;;;21.20;11.60;;;9.00;88.30;;;;;;5111528;27;20242;-77
2021/12/13 13:17:22;;;;;;;23.90;12.33;;;9.00;88.40;;;;;;5111399;27;20944;-77
2021/12/13 13:19:51;;;;;;;24.77;10.47;;;9.00;88.60;;;;;;5118145;27;20203;-78
2021/12/13 13:22:22;;;;;;;20.07;10.57;;;9.00;88.40;;;;;;5123919;27;20192;-76
2021/12/13 13:25:14;;;;;;;21.07;10.77;;;9.00;88.30;;;;;;5120104;27;20235;-77
2021/12/13 13:27:42;;;;;;;22.50;11.20;;;9.00;88.30;;;;;;5108268;27;20181;-76
2021/12/13 13:30:18;;;;;;;20.90;10.90;;;9.00;88.30;;;;;;5112092;27;20698;-76
2021/12/13 13:32:47;;;;;;;21.00;10.83;;;9.00;88.50;;;;;;5108654;27;20566;-76
2021/12/13 13:35:16;;;;;;;20.60;10.83;;;9.00;88.60;;;;;;5108267;27;20228;-76